sensor_id;sensor_type;location;lat;lon;timestamp;pressure;altitude;pressure_sealevel;temperature;humidity
49877;BME280;35771;48.978;9.294;2023-02-28T00:01:26;99821.31;;;-2.73;77.84
49877;BME280;35771;48.978;9.294;2023-02-28T00:03:52;99823.50;;;-2.63;77.53
49877;BME280;35771;48.978;9.294;2023-02-28T00:06:20;99813.44;;;-2.74;78.21
49877;BME280;35771;48.978;9.294;2023-02-28T00:08:47;99798.41;;;-2.75;78.29
49877;BME280;35771;48.978;9.294;2023-02-28T00:11:15;99823.41;;;-2.62;78.43
49877;BME280;35771;48.978;9.294;2023-02-28T00:13:44;99818.19;;;-2.63;78.87
49877;BME280;35771;48.978;9.294;2023-02-28T00:16:12;99815.84;;;-2.54;78.68
49877;BME280;35771;48.978;9.294;2023-02-28T00:18:40;99803.31;;;-2.68;79.42
49877;BME280;35771;48.978;9.294;2023-02-28T00:21:07;99788.63;;;-2.75;79.57
49877;BME280;35771;48.978;9.294;2023-02-28T00:23:35;99823.75;;;-2.52;79.94
49877;BME280;35771;48.978;9.294;2023-02-28T00:26:02;99795.50;;;-2.71;80.18
49877;BME280;35771;48.978;9.294;2023-02-28T00:28:29;99813.44;;;-2.58;79.99
49877;BME280;35771;48.978;9.294;2023-02-28T00:30:56;99803.91;;;-2.62;80.49
49877;BME280;35771;48.978;9.294;2023-02-28T00:33:22;99813.94;;;-2.52;80.66
49877;BME280;35771;48.978;9.294;2023-02-28T00:35:49;99820.59;;;-2.59;80.98
49877;BME280;35771;48.978;9.294;2023-02-28T00:38:16;99806.81;;;-2.67;80.96
49877;BME280;35771;48.978;9.294;2023-02-28T00:40:44;99816.19;;;-2.60;81.25
49877;BME280;35771;48.978;9.294;2023-02-28T00:43:10;99815.00;;;-2.54;81.59
49877;BME280;35771;48.978;9.294;2023-02-28T00:45:37;99792.13;;;-2.74;81.91
49877;BME280;35771;48.978;9.294;2023-02-28T00:48:04;99806.81;;;-2.67;81.55
49877;BME280;35771;48.978;9.294;2023-02-28T00:50:31;99811.81;;;-2.61;82.37
49877;BME280;35771;48.978;9.294;2023-02-28T00:52:57;99820.84;;;-2.63;82.37
49877;BME280;35771;48.978;9.294;2023-02-28T00:55:24;99801.84;;;-2.73;83.14
49877;BME280;35771;48.978;9.294;2023-02-28T00:57:52;99795.94;;;-2.78;83.34
49877;BME280;35771;48.978;9.294;2023-02-28T01:00:19;99808.81;;;-2.71;83.31
49877;BME280;35771;48.978;9.294;2023-02-28T01:02:45;99804.50;;;-2.73;83.53
49877;BME280;35771;48.978;9.294;2023-02-28T01:05:12;99822.88;;;-2.69;83.85
49877;BME280;35771;48.978;9.294;2023-02-28T01:07:38;99792.66;;;-2.83;83.75
49877;BME280;35771;48.978;9.294;2023-02-28T01:10:06;99798.50;;;-2.77;84.50
49877;BME280;35771;48.978;9.294;2023-02-28T01:12:32;99800.63;;;-2.83;84.70
49877;BME280;35771;48.978;9.294;2023-02-28T01:15:00;99795.66;;;-2.90;84.64
49877;BME280;35771;48.978;9.294;2023-02-28T01:17:27;99795.38;;;-2.85;84.53
49877;BME280;35771;48.978;9.294;2023-02-28T01:19:54;99783.34;;;-2.92;84.63
49877;BME280;35771;48.978;9.294;2023-02-28T01:22:21;99794.38;;;-2.82;84.72
49877;BME280;35771;48.978;9.294;2023-02-28T01:24:47;99811.66;;;-2.74;84.68
49877;BME280;35771;48.978;9.294;2023-02-28T01:27:14;99796.94;;;-2.81;84.62
49877;BME280;35771;48.978;9.294;2023-02-28T01:29:40;99806.84;;;-2.83;84.95
49877;BME280;35771;48.978;9.294;2023-02-28T01:32:08;99783.81;;;-2.84;84.84
49877;BME280;35771;48.978;9.294;2023-02-28T01:34:35;99777.03;;;-2.90;85.56
49877;BME280;35771;48.978;9.294;2023-02-28T01:37:01;99802.69;;;-2.73;85.08
49877;BME280;35771;48.978;9.294;2023-02-28T01:39:28;99791.72;;;-2.82;85.17
49877;BME280;35771;48.978;9.294;2023-02-28T01:41:55;99768.63;;;-2.98;85.53
49877;BME280;35771;48.978;9.294;2023-02-28T01:47:32;99771.09;;;-2.95;86.27
49877;BME280;35771;48.978;9.294;2023-02-28T01:50:01;99777.19;;;-2.93;86.38
49877;BME280;35771;48.978;9.294;2023-02-28T01:52:28;99797.13;;;-2.84;86.85
49877;BME280;35771;48.978;9.294;2023-02-28T01:54:58;99794.00;;;-2.92;86.97
49877;BME280;35771;48.978;9.294;2023-02-28T01:57:29;99784.56;;;-2.98;87.55
49877;BME280;35771;48.978;9.294;2023-02-28T02:00:06;99781.28;;;-3.03;87.43
49877;BME280;35771;48.978;9.294;2023-02-28T02:02:36;99781.84;;;-2.96;87.43
49877;BME280;35771;48.978;9.294;2023-02-28T02:05:06;99789.66;;;-2.93;87.75
49877;BME280;35771;48.978;9.294;2023-02-28T02:07:35;99778.28;;;-2.97;87.42
49877;BME280;35771;48.978;9.294;2023-02-28T02:10:06;99777.63;;;-3.00;88.30
49877;BME280;35771;48.978;9.294;2023-02-28T02:12:46;99754.78;;;-3.21;88.56
49877;BME280;35771;48.978;9.294;2023-02-28T02:15:23;99776.47;;;-3.12;89.32
49877;BME280;35771;48.978;9.294;2023-02-28T02:17:56;99774.66;;;-3.12;89.70
49877;BME280;35771;48.978;9.294;2023-02-28T02:20:43;99779.66;;;-3.06;90.34
49877;BME280;35771;48.978;9.294;2023-02-28T02:23:25;99773.13;;;-3.16;90.70
49877;BME280;35771;48.978;9.294;2023-02-28T02:25:55;99752.16;;;-3.38;90.97
49877;BME280;35771;48.978;9.294;2023-02-28T02:28:41;99764.84;;;-3.27;91.36
49877;BME280;35771;48.978;9.294;2023-02-28T02:31:32;99772.25;;;-3.16;91.83
49877;BME280;35771;48.978;9.294;2023-02-28T02:34:27;99754.13;;;-3.26;92.05
49877;BME280;35771;48.978;9.294;2023-02-28T02:37:05;99749.84;;;-3.28;92.22
49877;BME280;35771;48.978;9.294;2023-02-28T02:39:40;99775.63;;;-3.13;92.54
49877;BME280;35771;48.978;9.294;2023-02-28T02:42:14;99771.00;;;-3.09;92.79
49877;BME280;35771;48.978;9.294;2023-02-28T02:44:47;99770.22;;;-3.11;93.23
49877;BME280;35771;48.978;9.294;2023-02-28T02:47:17;99761.38;;;-3.12;92.80
49877;BME280;35771;48.978;9.294;2023-02-28T02:49:49;99742.56;;;-3.25;93.59
49877;BME280;35771;48.978;9.294;2023-02-28T02:52:19;99747.00;;;-3.25;93.85
49877;BME280;35771;48.978;9.294;2023-02-28T02:54:49;99761.91;;;-3.05;93.57
49877;BME280;35771;48.978;9.294;2023-02-28T02:57:23;99755.19;;;-3.12;93.39
49877;BME280;35771;48.978;9.294;2023-02-28T02:59:52;99763.47;;;-3.01;93.40
49877;BME280;35771;48.978;9.294;2023-02-28T03:02:20;99760.81;;;-3.01;93.62
49877;BME280;35771;48.978;9.294;2023-02-28T03:04:52;99752.09;;;-3.05;93.75
49877;BME280;35771;48.978;9.294;2023-02-28T03:07:19;99750.25;;;-3.03;93.88
49877;BME280;35771;48.978;9.294;2023-02-28T03:09:51;99745.44;;;-2.96;93.11
49877;BME280;35771;48.978;9.294;2023-02-28T03:12:18;99744.75;;;-2.99;93.00
49877;BME280;35771;48.978;9.294;2023-02-28T03:14:54;99745.34;;;-2.94;92.60
49877;BME280;35771;48.978;9.294;2023-02-28T03:17:43;99749.97;;;-2.82;91.81
49877;BME280;35771;48.978;9.294;2023-02-28T03:20:15;99756.78;;;-2.76;92.28
49877;BME280;35771;48.978;9.294;2023-02-28T03:22:49;99726.13;;;-2.83;91.76
49877;BME280;35771;48.978;9.294;2023-02-28T03:25:21;99735.66;;;-2.79;91.53
49877;BME280;35771;48.978;9.294;2023-02-28T03:27:59;99743.38;;;-2.75;91.15
49877;BME280;35771;48.978;9.294;2023-02-28T03:30:30;99745.09;;;-2.74;91.10
49877;BME280;35771;48.978;9.294;2023-02-28T03:33:03;99733.31;;;-2.70;92.04
49877;BME280;35771;48.978;9.294;2023-02-28T03:35:36;99753.31;;;-2.62;91.88
49877;BME280;35771;48.978;9.294;2023-02-28T03:38:08;99740.81;;;-2.76;90.68
49877;BME280;35771;48.978;9.294;2023-02-28T03:40:42;99745.03;;;-2.72;90.59
49877;BME280;35771;48.978;9.294;2023-02-28T03:43:12;99720.28;;;-2.74;90.30
49877;BME280;35771;48.978;9.294;2023-02-28T03:45:41;99743.56;;;-2.62;89.52
49877;BME280;35771;48.978;9.294;2023-02-28T03:48:13;99758.91;;;-2.51;89.24
49877;BME280;35771;48.978;9.294;2023-02-28T03:50:46;99728.88;;;-2.69;89.57
49877;BME280;35771;48.978;9.294;2023-02-28T03:53:16;99736.94;;;-2.71;90.02
49877;BME280;35771;48.978;9.294;2023-02-28T03:55:47;99755.81;;;-2.59;90.23
49877;BME280;35771;48.978;9.294;2023-02-28T03:58:21;99747.75;;;-2.58;89.54
49877;BME280;35771;48.978;9.294;2023-02-28T04:00:55;99746.97;;;-2.60;89.58
49877;BME280;35771;48.978;9.294;2023-02-28T04:03:23;99741.91;;;-2.64;89.80
49877;BME280;35771;48.978;9.294;2023-02-28T04:05:53;99757.78;;;-2.47;89.84
49877;BME280;35771;48.978;9.294;2023-02-28T04:08:21;99748.19;;;-2.50;90.07
49877;BME280;35771;48.978;9.294;2023-02-28T04:10:53;99750.94;;;-2.51;90.14
49877;BME280;35771;48.978;9.294;2023-02-28T04:13:21;99742.59;;;-2.61;90.06
49877;BME280;35771;48.978;9.294;2023-02-28T04:15:48;99757.78;;;-2.47;90.01
49877;BME280;35771;48.978;9.294;2023-02-28T04:18:14;99749.38;;;-2.55;90.37
49877;BME280;35771;48.978;9.294;2023-02-28T04:20:41;99738.16;;;-2.60;89.62
49877;BME280;35771;48.978;9.294;2023-02-28T04:23:09;99759.31;;;-2.43;90.69
49877;BME280;35771;48.978;9.294;2023-02-28T04:25:35;99769.31;;;-2.46;89.69
49877;BME280;35771;48.978;9.294;2023-02-28T04:28:02;99774.19;;;-2.39;90.50
49877;BME280;35771;48.978;9.294;2023-02-28T04:30:28;99761.66;;;-2.53;90.09
49877;BME280;35771;48.978;9.294;2023-02-28T04:32:57;99778.84;;;-2.42;89.87
49877;BME280;35771;48.978;9.294;2023-02-28T04:35:24;99767.22;;;-2.41;90.03
49877;BME280;35771;48.978;9.294;2023-02-28T04:37:50;99773.25;;;-2.38;90.31
49877;BME280;35771;48.978;9.294;2023-02-28T04:40:18;99769.63;;;-2.37;89.46
49877;BME280;35771;48.978;9.294;2023-02-28T04:42:45;99740.28;;;-2.51;88.93
49877;BME280;35771;48.978;9.294;2023-02-28T04:45:11;99759.16;;;-2.40;89.33
49877;BME280;35771;48.978;9.294;2023-02-28T04:47:38;99771.25;;;-2.34;89.48
49877;BME280;35771;48.978;9.294;2023-02-28T04:50:05;99758.38;;;-2.42;89.60
49877;BME280;35771;48.978;9.294;2023-02-28T04:52:31;99762.50;;;-2.36;89.74
49877;BME280;35771;48.978;9.294;2023-02-28T04:54:58;99752.03;;;-2.39;89.43
49877;BME280;35771;48.978;9.294;2023-02-28T04:57:26;99759.75;;;-2.35;89.95
49877;BME280;35771;48.978;9.294;2023-02-28T04:59:52;99771.94;;;-2.31;88.63
49877;BME280;35771;48.978;9.294;2023-02-28T05:02:19;99775.75;;;-2.35;90.57
49877;BME280;35771;48.978;9.294;2023-02-28T05:04:46;99746.19;;;-2.46;89.44
49877;BME280;35771;48.978;9.294;2023-02-28T05:07:12;99773.84;;;-2.33;90.62
49877;BME280;35771;48.978;9.294;2023-02-28T05:09:39;99782.75;;;-2.34;89.93
49877;BME280;35771;48.978;9.294;2023-02-28T05:12:06;99783.56;;;-2.32;90.61
49877;BME280;35771;48.978;9.294;2023-02-28T05:14:34;99751.44;;;-2.44;89.76
49877;BME280;35771;48.978;9.294;2023-02-28T05:17:01;99779.25;;;-2.34;89.91
49877;BME280;35771;48.978;9.294;2023-02-28T05:19:28;99752.88;;;-2.39;89.61
49877;BME280;35771;48.978;9.294;2023-02-28T05:21:55;99769.78;;;-2.40;90.28
49877;BME280;35771;48.978;9.294;2023-02-28T05:24:22;99764.56;;;-2.41;89.78
49877;BME280;35771;48.978;9.294;2023-02-28T05:26:50;99762.06;;;-2.44;90.58
49877;BME280;35771;48.978;9.294;2023-02-28T05:29:18;99755.38;;;-2.52;90.48
49877;BME280;35771;48.978;9.294;2023-02-28T05:31:46;99768.44;;;-2.47;90.42
49877;BME280;35771;48.978;9.294;2023-02-28T05:34:13;99755.81;;;-2.43;90.09
49877;BME280;35771;48.978;9.294;2023-02-28T05:36:40;99781.16;;;-2.36;90.45
49877;BME280;35771;48.978;9.294;2023-02-28T05:39:07;99780.97;;;-2.33;90.12
49877;BME280;35771;48.978;9.294;2023-02-28T05:41:38;99750.22;;;-2.55;90.08
49877;BME280;35771;48.978;9.294;2023-02-28T05:44:05;99761.22;;;-2.45;89.71
49877;BME280;35771;48.978;9.294;2023-02-28T05:46:31;99747.91;;;-2.45;89.78
49877;BME280;35771;48.978;9.294;2023-02-28T05:48:59;99775.13;;;-2.40;90.04
49877;BME280;35771;48.978;9.294;2023-02-28T05:51:26;99765.00;;;-2.49;89.75
49877;BME280;35771;48.978;9.294;2023-02-28T05:53:52;99770.06;;;-2.44;89.78
49877;BME280;35771;48.978;9.294;2023-02-28T05:56:19;99780.28;;;-2.37;89.40
49877;BME280;35771;48.978;9.294;2023-02-28T05:58:45;99787.81;;;-2.29;91.10
49877;BME280;35771;48.978;9.294;2023-02-28T06:01:31;99763.97;;;-2.46;90.63
49877;BME280;35771;48.978;9.294;2023-02-28T06:04:00;99765.53;;;-2.42;89.47
49877;BME280;35771;48.978;9.294;2023-02-28T06:06:27;99789.91;;;-2.34;89.66
49877;BME280;35771;48.978;9.294;2023-02-28T06:08:54;99784.50;;;-2.33;89.83
49877;BME280;35771;48.978;9.294;2023-02-28T06:11:21;99789.81;;;-2.33;89.30
49877;BME280;35771;48.978;9.294;2023-02-28T06:13:53;99774.38;;;-2.42;89.54
49877;BME280;35771;48.978;9.294;2023-02-28T06:16:19;99788.34;;;-2.38;89.90
49877;BME280;35771;48.978;9.294;2023-02-28T06:18:46;99798.25;;;-2.40;89.35
49877;BME280;35771;48.978;9.294;2023-02-28T06:21:14;99794.66;;;-2.39;89.95
49877;BME280;35771;48.978;9.294;2023-02-28T06:23:43;99780.81;;;-2.46;89.77
49877;BME280;35771;48.978;9.294;2023-02-28T06:26:09;99770.50;;;-2.52;89.65
49877;BME280;35771;48.978;9.294;2023-02-28T06:28:36;99772.41;;;-2.54;89.77
49877;BME280;35771;48.978;9.294;2023-02-28T06:31:06;99777.72;;;-2.54;90.92
49877;BME280;35771;48.978;9.294;2023-02-28T06:33:33;99803.66;;;-2.42;90.19
49877;BME280;35771;48.978;9.294;2023-02-28T06:35:59;99791.81;;;-2.52;89.99
49877;BME280;35771;48.978;9.294;2023-02-28T06:38:27;99793.44;;;-2.50;90.26
49877;BME280;35771;48.978;9.294;2023-02-28T06:40:54;99788.22;;;-2.51;90.98
49877;BME280;35771;48.978;9.294;2023-02-28T06:43:21;99796.09;;;-2.50;90.55
49877;BME280;35771;48.978;9.294;2023-02-28T06:45:47;99811.22;;;-2.34;90.01
49877;BME280;35771;48.978;9.294;2023-02-28T06:48:14;99812.75;;;-2.30;90.23
49877;BME280;35771;48.978;9.294;2023-02-28T06:50:41;99830.03;;;-2.21;89.80
49877;BME280;35771;48.978;9.294;2023-02-28T06:53:07;99801.66;;;-2.38;89.52
49877;BME280;35771;48.978;9.294;2023-02-28T06:55:37;99806.22;;;-2.40;89.16
49877;BME280;35771;48.978;9.294;2023-02-28T06:58:04;99816.88;;;-2.40;89.25
49877;BME280;35771;48.978;9.294;2023-02-28T07:00:40;99829.25;;;-2.39;89.59
49877;BME280;35771;48.978;9.294;2023-02-28T07:03:10;99844.72;;;-2.30;89.57
49877;BME280;35771;48.978;9.294;2023-02-28T07:05:37;99830.88;;;-2.21;89.04
49877;BME280;35771;48.978;9.294;2023-02-28T07:08:05;99826.84;;;-2.28;88.76
49877;BME280;35771;48.978;9.294;2023-02-28T07:10:32;99859.13;;;-2.02;88.10
49877;BME280;35771;48.978;9.294;2023-02-28T07:13:00;99855.25;;;-1.97;88.91
49877;BME280;35771;48.978;9.294;2023-02-28T07:15:27;99834.31;;;-2.19;88.62
49877;BME280;35771;48.978;9.294;2023-02-28T07:17:54;99839.81;;;-2.06;87.92
49877;BME280;35771;48.978;9.294;2023-02-28T07:20:21;99856.63;;;-2.05;88.70
49877;BME280;35771;48.978;9.294;2023-02-28T07:22:48;99822.28;;;-2.26;88.75
49877;BME280;35771;48.978;9.294;2023-02-28T07:25:21;99829.75;;;-2.17;88.11
49877;BME280;35771;48.978;9.294;2023-02-28T07:27:48;99828.72;;;-2.14;89.03
49877;BME280;35771;48.978;9.294;2023-02-28T07:30:16;99840.75;;;-2.07;87.47
49877;BME280;35771;48.978;9.294;2023-02-28T07:32:43;99861.00;;;-1.88;87.87
49877;BME280;35771;48.978;9.294;2023-02-28T07:35:10;99836.97;;;-2.03;87.24
49877;BME280;35771;48.978;9.294;2023-02-28T07:37:36;99832.00;;;-2.09;86.98
49877;BME280;35771;48.978;9.294;2023-02-28T07:40:04;99838.69;;;-2.02;88.52
49877;BME280;35771;48.978;9.294;2023-02-28T07:42:33;99826.44;;;-1.90;88.43
49877;BME280;35771;48.978;9.294;2023-02-28T07:45:00;99841.28;;;-1.70;87.78
49877;BME280;35771;48.978;9.294;2023-02-28T07:47:28;99828.78;;;-2.00;86.24
49877;BME280;35771;48.978;9.294;2023-02-28T07:49:55;99850.56;;;-2.07;87.27
49877;BME280;35771;48.978;9.294;2023-02-28T07:52:22;99859.59;;;-1.80;87.44
49877;BME280;35771;48.978;9.294;2023-02-28T07:54:49;99836.16;;;-1.89;86.22
49877;BME280;35771;48.978;9.294;2023-02-28T07:57:16;99869.44;;;-1.66;87.29
49877;BME280;35771;48.978;9.294;2023-02-28T07:59:43;99835.06;;;-1.70;86.85
49877;BME280;35771;48.978;9.294;2023-02-28T08:02:12;99866.13;;;-1.69;85.12
49877;BME280;35771;48.978;9.294;2023-02-28T08:04:41;99849.28;;;-1.70;85.76
49877;BME280;35771;48.978;9.294;2023-02-28T08:07:07;99867.59;;;-1.80;86.49
49877;BME280;35771;48.978;9.294;2023-02-28T08:09:35;99841.31;;;-1.86;86.69
49877;BME280;35771;48.978;9.294;2023-02-28T08:12:02;99857.38;;;-1.71;87.02
49877;BME280;35771;48.978;9.294;2023-02-28T08:14:28;99851.16;;;-1.72;85.80
49877;BME280;35771;48.978;9.294;2023-02-28T08:16:55;99860.72;;;-1.84;85.67
49877;BME280;35771;48.978;9.294;2023-02-28T08:19:21;99862.09;;;-1.76;86.28
49877;BME280;35771;48.978;9.294;2023-02-28T08:21:49;99853.25;;;-1.77;86.61
49877;BME280;35771;48.978;9.294;2023-02-28T08:24:16;99863.44;;;-1.53;85.26
49877;BME280;35771;48.978;9.294;2023-02-28T08:26:42;99859.03;;;-1.54;84.83
49877;BME280;35771;48.978;9.294;2023-02-28T08:29:09;99840.63;;;-1.59;84.92
49877;BME280;35771;48.978;9.294;2023-02-28T08:31:36;99845.69;;;-1.54;83.78
49877;BME280;35771;48.978;9.294;2023-02-28T08:34:05;99821.50;;;-1.51;84.43
49877;BME280;35771;48.978;9.294;2023-02-28T08:36:31;99846.69;;;-1.27;84.08
49877;BME280;35771;48.978;9.294;2023-02-28T08:38:59;99863.50;;;-1.25;82.18
49877;BME280;35771;48.978;9.294;2023-02-28T08:41:26;99851.09;;;-1.26;82.50
49877;BME280;35771;48.978;9.294;2023-02-28T08:43:53;99856.38;;;-1.10;82.64
49877;BME280;35771;48.978;9.294;2023-02-28T08:46:20;99849.50;;;-1.14;83.23
49877;BME280;35771;48.978;9.294;2023-02-28T08:48:46;99849.44;;;-0.98;82.60
49877;BME280;35771;48.978;9.294;2023-02-28T08:51:16;99860.47;;;-0.90;79.37
49877;BME280;35771;48.978;9.294;2023-02-28T08:53:46;99848.94;;;-1.04;80.29
49877;BME280;35771;48.978;9.294;2023-02-28T08:56:16;99866.19;;;-0.81;81.21
49877;BME280;35771;48.978;9.294;2023-02-28T08:58:43;99849.22;;;-0.80;80.15
49877;BME280;35771;48.978;9.294;2023-02-28T09:01:14;99855.25;;;-0.77;80.12
49877;BME280;35771;48.978;9.294;2023-02-28T09:03:42;99846.47;;;-0.64;78.91
49877;BME280;35771;48.978;9.294;2023-02-28T09:06:09;99837.09;;;-0.57;78.05
49877;BME280;35771;48.978;9.294;2023-02-28T09:08:36;99860.16;;;-0.42;77.60
49877;BME280;35771;48.978;9.294;2023-02-28T09:11:03;99858.31;;;-0.27;78.22
49877;BME280;35771;48.978;9.294;2023-02-28T09:13:32;99865.16;;;-0.23;75.96
49877;BME280;35771;48.978;9.294;2023-02-28T09:15:59;99838.88;;;-0.43;75.75
49877;BME280;35771;48.978;9.294;2023-02-28T09:18:27;99855.66;;;-0.41;76.42
49877;BME280;35771;48.978;9.294;2023-02-28T09:20:53;99839.03;;;-0.32;76.24
49877;BME280;35771;48.978;9.294;2023-02-28T09:23:20;99850.56;;;-0.17;75.97
49877;BME280;35771;48.978;9.294;2023-02-28T09:25:48;99847.75;;;-0.01;74.64
49877;BME280;35771;48.978;9.294;2023-02-28T09:28:14;99848.88;;;0.09;75.75
49877;BME280;35771;48.978;9.294;2023-02-28T09:30:44;99837.66;;;0.17;74.02
49877;BME280;35771;48.978;9.294;2023-02-28T09:33:11;99851.94;;;0.43;74.23
49877;BME280;35771;48.978;9.294;2023-02-28T09:35:38;99821.78;;;0.54;74.13
49877;BME280;35771;48.978;9.294;2023-02-28T09:38:05;99849.00;;;0.74;72.98
49877;BME280;35771;48.978;9.294;2023-02-28T09:40:35;99848.59;;;0.93;71.67
49877;BME280;35771;48.978;9.294;2023-02-28T09:43:04;99857.72;;;1.03;70.84
49877;BME280;35771;48.978;9.294;2023-02-28T09:45:33;99833.16;;;0.70;70.05
49877;BME280;35771;48.978;9.294;2023-02-28T09:48:06;99851.06;;;0.83;70.68
49877;BME280;35771;48.978;9.294;2023-02-28T09:50:38;99852.03;;;0.82;70.04
49877;BME280;35771;48.978;9.294;2023-02-28T09:53:16;99865.41;;;0.82;69.69
49877;BME280;35771;48.978;9.294;2023-02-28T09:55:48;99842.59;;;0.76;69.95
49877;BME280;35771;48.978;9.294;2023-02-28T09:58:20;99842.50;;;0.91;69.75
49877;BME280;35771;48.978;9.294;2023-02-28T10:00:56;99850.63;;;1.02;67.77
49877;BME280;35771;48.978;9.294;2023-02-28T10:03:30;99853.53;;;1.12;67.54
49877;BME280;35771;48.978;9.294;2023-02-28T10:06:03;99858.25;;;1.21;66.30
49877;BME280;35771;48.978;9.294;2023-02-28T10:08:35;99870.69;;;1.22;67.33
49877;BME280;35771;48.978;9.294;2023-02-28T10:11:07;99865.00;;;1.27;67.13
49877;BME280;35771;48.978;9.294;2023-02-28T10:13:41;99850.00;;;0.98;67.10
49877;BME280;35771;48.978;9.294;2023-02-28T10:16:17;99869.06;;;1.06;66.28
49877;BME280;35771;48.978;9.294;2023-02-28T10:18:51;99874.41;;;1.06;68.09
49877;BME280;35771;48.978;9.294;2023-02-28T10:21:23;99861.78;;;1.09;68.03
49877;BME280;35771;48.978;9.294;2023-02-28T10:23:59;99861.56;;;0.86;68.14
49877;BME280;35771;48.978;9.294;2023-02-28T10:26:29;99874.63;;;0.91;67.62
49877;BME280;35771;48.978;9.294;2023-02-28T10:28:57;99867.03;;;0.84;67.28
49877;BME280;35771;48.978;9.294;2023-02-28T10:31:24;99857.06;;;0.86;66.72
49877;BME280;35771;48.978;9.294;2023-02-28T10:33:52;99862.50;;;0.72;67.35
49877;BME280;35771;48.978;9.294;2023-02-28T10:36:20;99856.81;;;0.64;69.06
49877;BME280;35771;48.978;9.294;2023-02-28T10:38:47;99861.97;;;0.67;67.99
49877;BME280;35771;48.978;9.294;2023-02-28T10:41:16;99880.41;;;0.84;66.71
49877;BME280;35771;48.978;9.294;2023-02-28T10:43:43;99859.75;;;0.86;68.47
49877;BME280;35771;48.978;9.294;2023-02-28T10:46:16;99877.53;;;1.13;67.23
49877;BME280;35771;48.978;9.294;2023-02-28T10:49:01;99871.09;;;1.29;66.39
49877;BME280;35771;48.978;9.294;2023-02-28T10:51:35;99862.50;;;1.36;65.93
49877;BME280;35771;48.978;9.294;2023-02-28T10:54:03;99870.50;;;1.62;65.85
49877;BME280;35771;48.978;9.294;2023-02-28T10:56:31;99868.66;;;1.75;64.34
49877;BME280;35771;48.978;9.294;2023-02-28T10:59:00;99847.78;;;1.68;63.82
49877;BME280;35771;48.978;9.294;2023-02-28T11:01:35;99862.94;;;1.93;62.67
49877;BME280;35771;48.978;9.294;2023-02-28T11:04:16;99850.03;;;1.98;63.30
49877;BME280;35771;48.978;9.294;2023-02-28T11:06:44;99833.94;;;2.22;62.95
49877;BME280;35771;48.978;9.294;2023-02-28T11:09:19;99838.00;;;2.63;62.01
49877;BME280;35771;48.978;9.294;2023-02-28T11:11:48;99839.75;;;2.40;61.02
49877;BME280;35771;48.978;9.294;2023-02-28T11:14:19;99833.75;;;2.37;62.41
49877;BME280;35771;48.978;9.294;2023-02-28T11:16:48;99824.28;;;2.44;61.95
49877;BME280;35771;48.978;9.294;2023-02-28T11:19:19;99803.44;;;2.59;62.33
49877;BME280;35771;48.978;9.294;2023-02-28T11:21:53;99812.91;;;2.76;60.64
49877;BME280;35771;48.978;9.294;2023-02-28T11:24:24;99805.56;;;2.78;59.82
49877;BME280;35771;48.978;9.294;2023-02-28T11:26:52;99808.53;;;3.09;59.67
49877;BME280;35771;48.978;9.294;2023-02-28T11:29:20;99817.81;;;3.39;60.99
49877;BME280;35771;48.978;9.294;2023-02-28T11:32:07;99818.28;;;3.55;59.35
49877;BME280;35771;48.978;9.294;2023-02-28T11:34:40;99815.59;;;3.55;59.63
49877;BME280;35771;48.978;9.294;2023-02-28T11:37:12;99820.59;;;3.60;57.82
49877;BME280;35771;48.978;9.294;2023-02-28T11:39:39;99788.38;;;3.26;59.04
49877;BME280;35771;48.978;9.294;2023-02-28T11:45:11;99830.28;;;3.51;58.88
49877;BME280;35771;48.978;9.294;2023-02-28T11:47:47;99817.69;;;3.40;56.96
49877;BME280;35771;48.978;9.294;2023-02-28T11:50:22;99803.78;;;3.35;59.10
49877;BME280;35771;48.978;9.294;2023-02-28T11:52:55;99815.47;;;3.57;56.68
49877;BME280;35771;48.978;9.294;2023-02-28T11:55:25;99812.31;;;3.51;56.77
49877;BME280;35771;48.978;9.294;2023-02-28T11:58:01;99788.38;;;3.14;57.36
49877;BME280;35771;48.978;9.294;2023-02-28T12:00:44;99821.97;;;3.54;57.97
49877;BME280;35771;48.978;9.294;2023-02-28T12:03:26;99821.84;;;3.44;58.20
49877;BME280;35771;48.978;9.294;2023-02-28T12:06:09;99816.72;;;3.30;57.74
49877;BME280;35771;48.978;9.294;2023-02-28T12:08:47;99825.41;;;3.33;57.42
49877;BME280;35771;48.978;9.294;2023-02-28T12:11:22;99816.97;;;3.38;57.49
49877;BME280;35771;48.978;9.294;2023-02-28T12:14:03;99819.53;;;3.40;57.02
49877;BME280;35771;48.978;9.294;2023-02-28T12:16:47;99793.03;;;3.46;56.16
49877;BME280;35771;48.978;9.294;2023-02-28T12:19:20;99805.44;;;3.70;56.12
49877;BME280;35771;48.978;9.294;2023-02-28T12:22:06;99797.25;;;3.71;57.25
49877;BME280;35771;48.978;9.294;2023-02-28T12:28:08;99803.94;;;3.88;56.12
49877;BME280;35771;48.978;9.294;2023-02-28T12:30:37;99780.91;;;3.96;56.03
49877;BME280;35771;48.978;9.294;2023-02-28T12:33:09;99796.53;;;4.13;55.35
49877;BME280;35771;48.978;9.294;2023-02-28T12:35:43;99785.44;;;4.06;56.20
49877;BME280;35771;48.978;9.294;2023-02-28T12:38:17;99796.53;;;4.02;55.08
49877;BME280;35771;48.978;9.294;2023-02-28T12:40:48;99783.22;;;4.00;54.59
49877;BME280;35771;48.978;9.294;2023-02-28T12:43:18;99775.66;;;3.94;55.63
49877;BME280;35771;48.978;9.294;2023-02-28T12:45:48;99780.66;;;3.99;55.04
49877;BME280;35771;48.978;9.294;2023-02-28T12:48:21;99795.31;;;4.06;55.61
49877;BME280;35771;48.978;9.294;2023-02-28T12:50:50;99794.72;;;4.02;55.09
49877;BME280;35771;48.978;9.294;2023-02-28T12:53:23;99787.19;;;3.85;55.04
49877;BME280;35771;48.978;9.294;2023-02-28T12:55:58;99757.59;;;3.85;54.21
49877;BME280;35771;48.978;9.294;2023-02-28T12:58:30;99786.84;;;4.11;55.03
49877;BME280;35771;48.978;9.294;2023-02-28T13:04:27;99756.88;;;4.15;54.93
49877;BME280;35771;48.978;9.294;2023-02-28T13:09:55;99776.88;;;4.34;56.28
49877;BME280;35771;48.978;9.294;2023-02-28T13:12:23;99750.91;;;4.12;55.16
49877;BME280;35771;48.978;9.294;2023-02-28T13:14:50;99756.88;;;4.15;54.47
49877;BME280;35771;48.978;9.294;2023-02-28T13:17:26;99763.44;;;4.22;54.85
49877;BME280;35771;48.978;9.294;2023-02-28T13:19:57;99768.00;;;4.22;56.12
49877;BME280;35771;48.978;9.294;2023-02-28T13:22:39;99756.66;;;4.07;55.17
49877;BME280;35771;48.978;9.294;2023-02-28T13:31:28;99774.75;;;4.05;56.05
49877;BME280;35771;48.978;9.294;2023-02-28T13:34:05;99757.31;;;3.99;55.64
49877;BME280;35771;48.978;9.294;2023-02-28T13:36:38;99770.38;;;4.04;56.01
49877;BME280;35771;48.978;9.294;2023-02-28T13:39:48;99755.72;;;3.97;55.32